createdAt,value
2018-08-10T00:00:47.938Z,2.20
2018-08-10T00:04:12.673Z,1.97
2018-08-10T00:07:37.539Z,2.30
2018-08-10T00:11:02.322Z,2.53
2018-08-10T00:14:27.024Z,2.10
2018-08-10T00:17:51.685Z,2.23
2018-08-10T00:21:16.406Z,2.30
2018-08-10T00:24:41.105Z,2.10
2018-08-10T00:28:06.239Z,2.30
2018-08-10T00:31:30.928Z,2.07
2018-08-10T00:34:55.651Z,2.20
2018-08-10T00:38:20.408Z,2.20
2018-08-10T00:41:45.760Z,1.90
2018-08-10T00:45:11.651Z,2.10
2018-08-10T00:48:36.291Z,1.83
2018-08-10T00:52:00.955Z,1.70
2018-08-10T00:55:25.591Z,1.40
2018-08-10T00:58:50.218Z,1.60
2018-08-10T01:02:14.875Z,1.37
2018-08-10T01:05:39.540Z,1.43
2018-08-10T01:09:07.417Z,1.77
2018-08-10T01:12:32.089Z,1.43
2018-08-10T01:15:56.729Z,1.40
2018-08-10T01:19:21.428Z,1.20
2018-08-10T01:22:51.479Z,1.30
2018-08-10T01:26:16.146Z,1.40
2018-08-10T01:29:40.754Z,1.40
2018-08-10T01:33:06.099Z,1.40
2018-08-10T01:36:30.742Z,1.50
2018-08-10T01:39:55.358Z,1.47
2018-08-10T01:43:20.051Z,1.23
2018-08-10T01:46:44.704Z,1.30
2018-08-10T01:50:10.956Z,1.40
2018-08-10T01:53:35.565Z,1.20
2018-08-10T01:57:00.235Z,1.30
2018-08-10T02:00:24.938Z,1.30
2018-08-10T02:03:49.559Z,1.40
2018-08-10T02:07:14.216Z,1.50
2018-08-10T02:10:38.857Z,1.37
2018-08-10T02:14:03.507Z,1.10
2018-08-10T02:17:28.121Z,1.27
2018-08-10T02:20:52.745Z,1.60
2018-08-10T02:24:17.394Z,1.20
2018-08-10T02:27:43.085Z,1.30
2018-08-10T02:31:08.028Z,1.30
2018-08-10T02:34:32.678Z,1.40
2018-08-10T02:37:57.395Z,1.30
2018-08-10T02:41:22.060Z,1.40
2018-08-10T02:44:46.659Z,1.60
2018-08-10T02:48:11.399Z,1.60
2018-08-10T02:51:36.056Z,1.40
2018-08-10T02:55:00.733Z,1.33
2018-08-10T02:58:25.355Z,1.40
2018-08-10T03:01:50.015Z,1.50
2018-08-10T03:05:14.717Z,1.40
2018-08-10T03:08:39.341Z,1.23
2018-08-10T03:12:04.060Z,1.30
2018-08-10T03:15:28.791Z,1.30
2018-08-10T03:18:53.463Z,1.20
2018-08-10T03:22:18.183Z,1.03
2018-08-10T03:25:42.755Z,1.10
2018-08-10T03:29:07.427Z,1.30
2018-08-10T03:32:32.210Z,1.17
2018-08-10T03:35:56.846Z,1.20
2018-08-10T03:39:21.496Z,1.20
2018-08-10T03:42:46.187Z,1.23
2018-08-10T03:46:10.856Z,1.50
2018-08-10T03:49:35.534Z,1.20
2018-08-10T03:53:00.171Z,1.40
2018-08-10T03:56:25.018Z,1.10
2018-08-10T03:59:49.646Z,1.20
2018-08-10T04:03:14.294Z,1.10
2018-08-10T04:06:38.936Z,1.00
2018-08-10T04:10:03.865Z,1.10
2018-08-10T04:13:28.481Z,1.10
2018-08-10T04:16:53.106Z,1.10
2018-08-10T04:20:17.854Z,1.00
2018-08-10T04:23:42.491Z,1.30
2018-08-10T04:27:07.194Z,0.90
2018-08-10T04:30:31.863Z,1.10
2018-08-10T04:33:56.515Z,1.30
2018-08-10T04:37:21.193Z,0.97
2018-08-10T04:40:45.873Z,1.27
2018-08-10T04:44:10.557Z,1.27
2018-08-10T04:47:35.216Z,1.30
2018-08-10T04:50:59.877Z,1.27
2018-08-10T04:54:24.531Z,1.20
2018-08-10T04:59:13.565Z,1.13
2018-08-10T05:02:38.279Z,1.13
2018-08-10T05:06:02.944Z,1.20
2018-08-10T05:09:27.584Z,1.20
2018-08-10T05:12:52.241Z,1.73
2018-08-10T05:16:16.979Z,1.10
2018-08-10T05:19:41.627Z,1.27
2018-08-10T05:23:06.353Z,1.00
2018-08-10T05:26:30.985Z,1.10
2018-08-10T05:29:55.649Z,1.10
2018-08-10T05:33:20.317Z,1.20
2018-08-10T05:36:45.191Z,1.30
2018-08-10T05:40:10.866Z,0.90
2018-08-10T05:43:35.603Z,1.00
2018-08-10T05:47:00.337Z,0.80
2018-08-10T05:50:24.860Z,1.00
2018-08-10T05:53:49.502Z,1.00
2018-08-10T05:57:14.321Z,1.10
2018-08-10T06:00:39.016Z,1.10
2018-08-10T06:04:03.686Z,1.20
2018-08-10T06:07:28.270Z,1.00
2018-08-10T06:10:53.025Z,0.90
2018-08-10T06:14:17.688Z,1.00
2018-08-10T06:17:42.328Z,0.90
2018-08-10T06:21:07.006Z,1.10
2018-08-10T06:24:31.629Z,1.00
2018-08-10T06:27:56.433Z,1.10
2018-08-10T06:31:20.934Z,1.10
2018-08-10T06:34:45.584Z,1.10
2018-08-10T06:38:10.246Z,1.00
2018-08-10T06:41:34.846Z,1.03
2018-08-10T06:44:59.603Z,1.40
2018-08-10T06:48:24.225Z,1.40
2018-08-10T06:51:48.937Z,1.03
2018-08-10T06:55:13.737Z,1.10
2018-08-10T06:58:38.465Z,1.13
2018-08-10T07:02:03.149Z,1.30
2018-08-10T07:05:27.834Z,1.10
2018-08-10T07:08:52.492Z,1.07
2018-08-10T07:12:17.143Z,1.20
2018-08-10T07:15:41.943Z,1.20
2018-08-10T07:19:06.611Z,1.20
2018-08-10T07:22:31.278Z,1.40
2018-08-10T07:25:55.969Z,1.40
2018-08-10T07:29:20.668Z,1.40
2018-08-10T07:32:45.378Z,1.20
2018-08-10T07:36:10.113Z,1.60
2018-08-10T07:39:34.735Z,1.30
2018-08-10T07:42:59.500Z,1.60
2018-08-10T07:46:24.237Z,1.33
2018-08-10T07:49:48.841Z,1.40
2018-08-10T07:53:13.568Z,1.40
2018-08-10T07:56:38.247Z,1.47
2018-08-10T08:00:02.985Z,1.60
2018-08-10T08:03:27.632Z,1.50
2018-08-10T08:06:52.312Z,1.53
2018-08-10T08:10:16.997Z,1.73
2018-08-10T08:13:41.657Z,1.37
2018-08-10T08:17:06.395Z,1.50
2018-08-10T08:20:31.161Z,1.40
2018-08-10T08:23:55.796Z,1.20
2018-08-10T08:27:20.654Z,1.40
2018-08-10T08:30:45.326Z,1.60
2018-08-10T08:34:10.172Z,1.80
2018-08-10T08:37:34.870Z,1.20
2018-08-10T08:40:59.639Z,1.20
2018-08-10T08:45:42.549Z,1.30
2018-08-10T08:49:07.218Z,1.37
2018-08-10T08:52:31.995Z,1.60
2018-08-10T08:55:59.380Z,1.57
2018-08-10T08:59:24.084Z,1.20
2018-08-10T09:02:48.736Z,1.10
2018-08-10T09:06:13.445Z,1.60
2018-08-10T09:09:40.796Z,1.33
2018-08-10T09:13:05.466Z,1.90
2018-08-10T09:16:30.145Z,1.27
2018-08-10T09:19:54.818Z,1.40
2018-08-10T09:23:19.555Z,1.10
2018-08-10T09:26:44.137Z,1.30
2018-08-10T09:30:11.271Z,1.23
2018-08-10T09:33:35.906Z,1.70
2018-08-10T09:37:00.936Z,3.30
2018-08-10T09:40:25.615Z,1.60
2018-08-10T09:43:50.297Z,1.57
2018-08-10T09:47:14.964Z,1.73
2018-08-10T09:50:39.608Z,1.70
2018-08-10T09:54:04.525Z,1.40
2018-08-10T09:57:29.170Z,1.40
2018-08-10T10:00:59.846Z,1.20
2018-08-10T10:04:24.514Z,1.40
2018-08-10T10:07:49.200Z,1.43
2018-08-10T10:11:13.794Z,1.20
2018-08-10T10:14:38.514Z,1.53
2018-08-10T10:18:03.209Z,1.40
2018-08-10T10:21:27.854Z,1.70
2018-08-10T10:24:52.555Z,1.27
2018-08-10T10:28:17.262Z,1.40
2018-08-10T10:31:42.106Z,1.50
2018-08-10T10:35:07.089Z,1.50
2018-08-10T10:38:31.743Z,1.90
2018-08-10T10:41:56.354Z,1.30
2018-08-10T10:45:20.997Z,1.37
2018-08-10T10:48:46.184Z,1.20
2018-08-10T10:52:10.864Z,1.47
2018-08-10T10:55:35.644Z,1.60
2018-08-10T10:59:00.397Z,1.20
2018-08-10T11:02:25.393Z,1.10
2018-08-10T11:05:52.188Z,1.47
2018-08-10T11:09:18.435Z,1.23
2018-08-10T11:12:43.643Z,1.20
2018-08-10T11:16:09.213Z,1.27
2018-08-10T11:19:34.386Z,1.30
2018-08-10T11:22:59.529Z,1.30
2018-08-10T11:26:24.523Z,1.37
2018-08-10T11:29:51.025Z,1.47
2018-08-10T11:33:17.006Z,1.30
2018-08-10T11:36:42.103Z,1.30
2018-08-10T11:40:13.739Z,1.30
2018-08-10T11:43:38.784Z,1.47
2018-08-10T11:47:04.112Z,1.47
2018-08-10T11:50:29.082Z,1.40
2018-08-10T11:53:54.355Z,1.30
2018-08-10T11:57:20.514Z,1.70
2018-08-10T12:00:45.795Z,1.57
2018-08-10T12:04:13.179Z,1.40
2018-08-10T12:07:38.310Z,1.30
2018-08-10T12:11:03.337Z,1.43
2018-08-10T12:14:28.443Z,1.63
2018-08-10T12:17:56.672Z,1.50
2018-08-10T12:21:21.671Z,1.27
2018-08-10T12:24:46.468Z,1.30
2018-08-10T12:28:11.121Z,1.40
2018-08-10T12:31:35.733Z,1.60
2018-08-10T12:35:00.425Z,1.43
2018-08-10T12:38:25.168Z,1.70
2018-08-10T12:41:49.824Z,1.50
2018-08-10T12:45:14.442Z,1.40
2018-08-10T12:48:39.097Z,1.67
2018-08-10T12:52:03.893Z,1.60
2018-08-10T12:55:29.515Z,1.43
2018-08-10T12:58:54.230Z,1.33
2018-08-10T13:02:18.957Z,1.73
2018-08-10T13:05:43.633Z,1.40
2018-08-10T13:09:12.164Z,1.40
2018-08-10T13:12:36.894Z,1.70
2018-08-10T13:16:01.614Z,1.40
2018-08-10T13:19:26.281Z,1.77
2018-08-10T13:22:51.019Z,1.50
2018-08-10T13:26:15.628Z,1.57
2018-08-10T13:29:40.271Z,1.60
2018-08-10T13:33:05.572Z,2.10
2018-08-10T13:36:30.253Z,2.20
2018-08-10T13:39:54.939Z,1.87
2018-08-10T13:43:19.701Z,2.57
2018-08-10T13:46:45.321Z,1.87
2018-08-10T13:50:13.097Z,1.67
2018-08-10T13:53:37.856Z,1.43
2018-08-10T13:57:02.785Z,1.90
2018-08-10T14:00:27.562Z,2.27
2018-08-10T14:03:53.539Z,1.50
2018-08-10T14:07:18.288Z,1.70
2018-08-10T14:10:43.210Z,1.73
2018-08-10T14:14:08.801Z,1.50
2018-08-10T14:17:33.508Z,1.50
2018-08-10T14:20:58.296Z,1.53
2018-08-10T14:24:23.126Z,1.47
2018-08-10T14:27:47.910Z,1.33
2018-08-10T14:31:12.632Z,1.60
2018-08-10T14:34:37.370Z,2.00
2018-08-10T14:38:02.173Z,1.57
2018-08-10T14:41:26.942Z,1.60
2018-08-10T14:44:51.651Z,1.60
2018-08-10T14:48:16.331Z,1.50
2018-08-10T14:51:41.126Z,2.00
2018-08-10T14:55:07.370Z,1.77
2018-08-10T14:59:01.727Z,1.97
2018-08-10T15:02:26.466Z,1.50
2018-08-10T15:05:52.378Z,1.70
2018-08-10T15:09:17.050Z,1.63
2018-08-10T15:12:42.135Z,1.50
2018-08-10T15:16:06.682Z,1.60
2018-08-10T15:19:32.666Z,1.70
2018-08-10T15:22:58.808Z,1.70
2018-08-10T15:26:25.225Z,1.63
2018-08-10T15:29:50.060Z,1.80
2018-08-10T15:33:14.857Z,1.90
2018-08-10T15:36:39.610Z,1.77
2018-08-10T15:40:05.034Z,1.50
2018-08-10T15:43:29.882Z,1.60
2018-08-10T15:46:54.580Z,1.70
2018-08-10T15:50:19.412Z,2.10
2018-08-10T15:53:44.154Z,1.90
2018-08-10T15:57:08.922Z,2.23
2018-08-10T16:00:33.700Z,1.63
2018-08-10T16:03:58.422Z,1.83
2018-08-10T16:07:23.186Z,1.80
2018-08-10T16:10:47.885Z,2.00
2018-08-10T16:14:12.736Z,1.67
2018-08-10T16:17:38.008Z,1.63
2018-08-10T16:21:02.770Z,2.07
2018-08-10T16:24:27.459Z,1.90
2018-08-10T16:27:52.273Z,2.00
2018-08-10T16:31:16.974Z,1.70
2018-08-10T16:34:41.759Z,2.00
2018-08-10T16:38:07.093Z,1.77
2018-08-10T16:41:39.228Z,1.93
2018-08-10T16:45:04.655Z,2.37
2018-08-10T16:48:32.020Z,1.63
2018-08-10T16:51:57.234Z,1.90
2018-08-10T16:55:22.686Z,1.83
2018-08-10T16:58:48.464Z,1.60
2018-08-10T17:02:13.711Z,1.40
2018-08-10T17:05:41.723Z,2.27
2018-08-10T17:09:10.269Z,2.07
2018-08-10T17:12:36.551Z,1.70
2018-08-10T17:16:03.649Z,2.20
2018-08-10T17:19:28.951Z,1.83
2018-08-10T17:22:57.111Z,2.23
2018-08-10T17:26:22.557Z,3.73
2018-08-10T17:29:47.647Z,1.70
2018-08-10T17:33:12.393Z,2.10
2018-08-10T17:36:37.046Z,2.00
2018-08-10T17:40:01.766Z,1.77
2018-08-10T17:43:26.479Z,1.80
2018-08-10T17:46:51.248Z,1.83
2018-08-10T17:50:18.684Z,1.80
2018-08-10T17:53:43.369Z,2.13
2018-08-10T17:57:08.128Z,1.90
2018-08-10T18:00:32.930Z,1.80
2018-08-10T18:03:57.756Z,1.83
2018-08-10T18:07:22.501Z,2.00
2018-08-10T18:10:47.392Z,1.80
2018-08-10T18:14:12.146Z,2.00
2018-08-10T18:17:37.727Z,1.80
2018-08-10T18:21:02.461Z,2.00
2018-08-10T18:24:27.154Z,2.40
2018-08-10T18:27:51.936Z,2.07
2018-08-10T18:31:16.643Z,2.30
2018-08-10T18:34:41.475Z,2.23
2018-08-10T18:38:06.500Z,2.03
2018-08-10T18:41:31.237Z,2.30
2018-08-10T18:44:56.044Z,2.87
2018-08-10T18:48:20.804Z,5.47
2018-08-10T18:51:45.650Z,5.77
2018-08-10T18:55:12.939Z,3.23
2018-08-10T18:58:37.624Z,2.63
2018-08-10T19:02:02.300Z,2.57
2018-08-10T19:05:27.036Z,2.43
2018-08-10T19:08:51.740Z,2.37
2018-08-10T19:12:16.543Z,2.37
2018-08-10T19:15:41.089Z,2.40
2018-08-10T19:19:05.866Z,2.20
2018-08-10T19:22:30.628Z,2.17
2018-08-10T19:25:55.330Z,1.90
2018-08-10T19:29:19.949Z,1.83
2018-08-10T19:32:45.637Z,2.00
2018-08-10T19:36:10.278Z,2.30
2018-08-10T19:39:34.996Z,2.47
2018-08-10T19:42:59.841Z,2.17
2018-08-10T19:46:24.587Z,2.50
2018-08-10T19:49:49.251Z,2.67
2018-08-10T19:53:14.018Z,2.40
2018-08-10T19:56:38.757Z,2.57
2018-08-10T20:00:03.492Z,2.73
2018-08-10T20:03:28.155Z,2.33
2018-08-10T20:06:52.874Z,2.60
2018-08-10T20:10:17.770Z,2.73
2018-08-10T20:13:42.473Z,2.30
2018-08-10T20:17:07.232Z,2.60
2018-08-10T20:20:31.968Z,2.87
2018-08-10T20:23:56.601Z,3.20
2018-08-10T20:27:21.309Z,6.17
2018-08-10T20:30:46.070Z,5.10
2018-08-10T20:34:10.752Z,4.43
2018-08-10T20:37:35.392Z,3.90
2018-08-10T20:41:00.093Z,3.03
2018-08-10T20:44:25.122Z,2.40
2018-08-10T20:47:49.970Z,2.20
2018-08-10T20:51:14.770Z,2.60
2018-08-10T20:54:39.571Z,2.20
2018-08-10T20:58:04.299Z,2.20
2018-08-10T21:01:29.079Z,2.20
2018-08-10T21:04:53.764Z,2.20
2018-08-10T21:08:18.459Z,5.10
2018-08-10T21:11:43.973Z,4.37
2018-08-10T21:15:10.101Z,3.83
2018-08-10T21:18:34.785Z,2.83
2018-08-10T21:21:59.525Z,2.57
2018-08-10T21:25:24.284Z,2.50
2018-08-10T21:28:48.913Z,2.57
2018-08-10T21:32:13.611Z,2.40
2018-08-10T21:35:38.634Z,2.33
2018-08-10T21:39:03.436Z,2.50
2018-08-10T21:42:28.164Z,2.80
2018-08-10T21:45:52.973Z,2.93
2018-08-10T21:49:17.669Z,3.40
2018-08-10T21:52:43.265Z,2.67
2018-08-10T21:56:08.006Z,2.67
2018-08-10T21:59:32.668Z,2.70
2018-08-10T22:02:57.317Z,2.30
2018-08-10T22:06:22.028Z,2.37
2018-08-10T22:09:46.745Z,2.37
2018-08-10T22:13:16.798Z,2.50
2018-08-10T22:16:46.809Z,2.60
2018-08-10T22:20:11.470Z,2.40
2018-08-10T22:23:36.132Z,2.50
2018-08-10T22:27:00.765Z,2.20
2018-08-10T22:30:25.490Z,2.50
2018-08-10T22:33:50.165Z,2.47
2018-08-10T22:37:14.862Z,2.40
2018-08-10T22:40:39.538Z,2.60
2018-08-10T22:44:04.388Z,2.50
2018-08-10T22:47:29.077Z,2.63
2018-08-10T22:50:53.730Z,2.83
2018-08-10T22:54:18.455Z,3.00
2018-08-10T22:57:43.183Z,2.77
2018-08-10T23:01:07.946Z,2.50
2018-08-10T23:04:32.579Z,2.47
2018-08-10T23:07:57.385Z,2.40
2018-08-10T23:11:22.045Z,2.53
2018-08-10T23:14:46.722Z,2.63
2018-08-10T23:18:11.384Z,2.73
2018-08-10T23:21:36.086Z,2.20
2018-08-10T23:25:00.809Z,2.73
2018-08-10T23:28:25.485Z,2.80
2018-08-10T23:31:50.081Z,2.87
2018-08-10T23:35:14.798Z,2.80
2018-08-10T23:38:39.522Z,2.57
2018-08-10T23:42:04.250Z,2.57
2018-08-10T23:45:28.868Z,2.37
2018-08-10T23:48:53.559Z,2.30
2018-08-10T23:52:18.224Z,2.63
2018-08-10T23:55:42.996Z,4.30
2018-08-10T23:59:07.695Z,3.37
